sensor_id;sensor_type;location;lat;lon;timestamp;pressure;altitude;pressure_sealevel;temperature;humidity
11415;BME280;5763;42.714;23.244;2023-02-20T00:00:48;94891.69;;;12.00;51.56
11415;BME280;5763;42.714;23.244;2023-02-20T00:03:15;94897.78;;;12.04;51.78
11415;BME280;5763;42.714;23.244;2023-02-20T00:05:42;94878.97;;;11.76;52.46
11415;BME280;5763;42.714;23.244;2023-02-20T00:08:08;94889.34;;;11.81;52.64
11415;BME280;5763;42.714;23.244;2023-02-20T00:10:35;94883.25;;;11.68;53.44
11415;BME280;5763;42.714;23.244;2023-02-20T00:13:02;94878.06;;;11.70;53.52
11415;BME280;5763;42.714;23.244;2023-02-20T00:15:29;94867.97;;;11.67;53.54
11415;BME280;5763;42.714;23.244;2023-02-20T00:17:57;94869.34;;;11.62;53.79
11415;BME280;5763;42.714;23.244;2023-02-20T00:20:25;94872.88;;;11.63;54.28
11415;BME280;5763;42.714;23.244;2023-02-20T00:22:54;94866.31;;;11.69;54.10
11415;BME280;5763;42.714;23.244;2023-02-20T00:25:21;94864.78;;;11.68;54.37
11415;BME280;5763;42.714;23.244;2023-02-20T00:27:48;94860.22;;;11.65;54.42
11415;BME280;5763;42.714;23.244;2023-02-20T00:30:16;94866.31;;;11.69;54.54
11415;BME280;5763;42.714;23.244;2023-02-20T00:32:44;94860.34;;;11.62;54.30
11415;BME280;5763;42.714;23.244;2023-02-20T00:35:13;94862.81;;;11.69;54.66
11415;BME280;5763;42.714;23.244;2023-02-20T00:37:40;94714.78;;;10.63;54.83
11415;BME280;5763;42.714;23.244;2023-02-20T00:40:08;94863.22;;;11.58;54.98
11415;BME280;5763;42.714;23.244;2023-02-20T00:42:36;94862.03;;;11.59;55.24
11415;BME280;5763;42.714;23.244;2023-02-20T00:45:03;94861.97;;;11.50;55.35
11415;BME280;5763;42.714;23.244;2023-02-20T00:47:30;94895.69;;;11.60;55.00
11415;BME280;5763;42.714;23.244;2023-02-20T00:49:56;94895.97;;;11.62;55.07
11415;BME280;5763;42.714;23.244;2023-02-20T00:52:25;94881.97;;;11.60;54.99
11415;BME280;5763;42.714;23.244;2023-02-20T00:54:52;94894.16;;;11.59;55.20
11415;BME280;5763;42.714;23.244;2023-02-20T00:57:19;94898.50;;;11.47;55.34
11415;BME280;5763;42.714;23.244;2023-02-20T00:59:46;94908.22;;;11.48;55.53
11415;BME280;5763;42.714;23.244;2023-02-20T01:02:13;94920.75;;;11.58;55.61
11415;BME280;5763;42.714;23.244;2023-02-20T01:04:40;94911.31;;;11.50;55.52
11415;BME280;5763;42.714;23.244;2023-02-20T01:07:07;94917.88;;;11.53;55.53
11415;BME280;5763;42.714;23.244;2023-02-20T01:09:35;94921.94;;;11.48;55.54
11415;BME280;5763;42.714;23.244;2023-02-20T01:12:02;94914.03;;;11.50;55.99
11415;BME280;5763;42.714;23.244;2023-02-20T01:14:29;94918.44;;;11.48;56.08
11415;BME280;5763;42.714;23.244;2023-02-20T01:16:56;94914.63;;;11.45;56.24
11415;BME280;5763;42.714;23.244;2023-02-20T01:19:23;94919.78;;;11.43;56.37
11415;BME280;5763;42.714;23.244;2023-02-20T01:21:50;94927.69;;;11.41;56.28
11415;BME280;5763;42.714;23.244;2023-02-20T01:24:18;94915.50;;;11.42;56.48
11415;BME280;5763;42.714;23.244;2023-02-20T01:26:47;94927.19;;;11.34;56.99
11415;BME280;5763;42.714;23.244;2023-02-20T01:29:15;94931.66;;;11.40;56.82
11415;BME280;5763;42.714;23.244;2023-02-20T01:31:46;94924.94;;;11.41;56.82
11415;BME280;5763;42.714;23.244;2023-02-20T01:34:13;94938.38;;;11.48;56.87
11415;BME280;5763;42.714;23.244;2023-02-20T01:36:45;94936.56;;;11.54;56.44
11415;BME280;5763;42.714;23.244;2023-02-20T01:39:12;94947.38;;;11.49;57.32
11415;BME280;5763;42.714;23.244;2023-02-20T01:41:39;94942.34;;;11.47;57.72
11415;BME280;5763;42.714;23.244;2023-02-20T01:44:16;94945.28;;;11.53;57.82
11415;BME280;5763;42.714;23.244;2023-02-20T01:46:46;94959.94;;;11.37;58.61
11415;BME280;5763;42.714;23.244;2023-02-20T01:49:18;94939.63;;;11.26;59.07
11415;BME280;5763;42.714;23.244;2023-02-20T01:51:49;94949.25;;;11.30;59.38
11415;BME280;5763;42.714;23.244;2023-02-20T01:54:18;94948.81;;;11.32;59.50
11415;BME280;5763;42.714;23.244;2023-02-20T01:56:48;94960.66;;;11.29;59.40
11415;BME280;5763;42.714;23.244;2023-02-20T01:59:17;94971.69;;;11.16;60.08
11415;BME280;5763;42.714;23.244;2023-02-20T02:01:46;94964.28;;;11.04;60.39
11415;BME280;5763;42.714;23.244;2023-02-20T02:04:13;94958.75;;;10.95;60.65
11415;BME280;5763;42.714;23.244;2023-02-20T02:06:42;94951.81;;;11.03;60.57
11415;BME280;5763;42.714;23.244;2023-02-20T02:09:16;94970.00;;;10.97;60.02
11415;BME280;5763;42.714;23.244;2023-02-20T02:11:46;94959.19;;;10.94;60.59
11415;BME280;5763;42.714;23.244;2023-02-20T02:14:14;94963.28;;;10.89;60.17
11415;BME280;5763;42.714;23.244;2023-02-20T02:16:51;94953.19;;;10.86;60.07
11415;BME280;5763;42.714;23.244;2023-02-20T02:19:40;94951.81;;;10.82;59.36
11415;BME280;5763;42.714;23.244;2023-02-20T02:22:28;94965.41;;;10.73;59.22
11415;BME280;5763;42.714;23.244;2023-02-20T02:25:24;94969.63;;;10.65;59.43
11415;BME280;5763;42.714;23.244;2023-02-20T02:28:19;94978.13;;;10.67;59.68
11415;BME280;5763;42.714;23.244;2023-02-20T02:31:12;94990.84;;;10.61;60.01
11415;BME280;5763;42.714;23.244;2023-02-20T02:34:06;94997.97;;;10.58;60.45
11415;BME280;5763;42.714;23.244;2023-02-20T02:36:50;94991.84;;;10.54;60.31
11415;BME280;5763;42.714;23.244;2023-02-20T02:39:26;94984.97;;;10.50;60.67
11415;BME280;5763;42.714;23.244;2023-02-20T02:41:57;94986.63;;;10.47;60.68
11415;BME280;5763;42.714;23.244;2023-02-20T02:44:30;94993.88;;;10.29;61.25
11415;BME280;5763;42.714;23.244;2023-02-20T02:47:02;94984.91;;;10.28;61.33
11415;BME280;5763;42.714;23.244;2023-02-20T02:49:36;94992.88;;;10.23;61.55
11415;BME280;5763;42.714;23.244;2023-02-20T02:52:05;94989.19;;;10.17;61.76
11415;BME280;5763;42.714;23.244;2023-02-20T02:54:34;95000.91;;;10.17;62.05
11415;BME280;5763;42.714;23.244;2023-02-20T02:57:22;94998.47;;;10.19;61.82
11415;BME280;5763;42.714;23.244;2023-02-20T02:59:52;95008.75;;;10.15;62.38
11415;BME280;5763;42.714;23.244;2023-02-20T03:02:21;95002.44;;;10.06;62.67
11415;BME280;5763;42.714;23.244;2023-02-20T03:04:50;95005.59;;;10.04;62.71
11415;BME280;5763;42.714;23.244;2023-02-20T03:07:22;94999.38;;;10.04;62.81
11415;BME280;5763;42.714;23.244;2023-02-20T03:09:51;94997.06;;;10.02;62.39
11415;BME280;5763;42.714;23.244;2023-02-20T03:12:21;94997.16;;;9.99;62.07
11415;BME280;5763;42.714;23.244;2023-02-20T03:14:54;95006.91;;;10.00;62.20
11415;BME280;5763;42.714;23.244;2023-02-20T03:17:43;95009.94;;;9.89;61.63
11415;BME280;5763;42.714;23.244;2023-02-20T03:20:15;95021.97;;;9.92;61.82
11415;BME280;5763;42.714;23.244;2023-02-20T03:22:46;95010.38;;;9.88;61.82
11415;BME280;5763;42.714;23.244;2023-02-20T03:25:18;95025.13;;;9.90;61.38
11415;BME280;5763;42.714;23.244;2023-02-20T03:27:51;95032.34;;;9.97;61.31
11415;BME280;5763;42.714;23.244;2023-02-20T03:30:22;95042.97;;;9.95;61.00
11415;BME280;5763;42.714;23.244;2023-02-20T03:32:52;95027.78;;;9.81;61.48
11415;BME280;5763;42.714;23.244;2023-02-20T03:35:41;95020.78;;;9.80;61.50
11415;BME280;5763;42.714;23.244;2023-02-20T03:38:29;95024.06;;;9.75;61.68
11415;BME280;5763;42.714;23.244;2023-02-20T03:41:16;95032.56;;;9.77;61.76
11415;BME280;5763;42.714;23.244;2023-02-20T03:44:03;95023.72;;;9.73;61.71
11415;BME280;5763;42.714;23.244;2023-02-20T03:46:32;95052.47;;;9.65;61.88
11415;BME280;5763;42.714;23.244;2023-02-20T03:49:03;95034.97;;;9.63;62.00
11415;BME280;5763;42.714;23.244;2023-02-20T03:51:32;95040.09;;;9.61;62.15
11415;BME280;5763;42.714;23.244;2023-02-20T03:54:00;95035.81;;;9.60;61.94
11415;BME280;5763;42.714;23.244;2023-02-20T03:56:30;95049.38;;;9.63;61.79
11415;BME280;5763;42.714;23.244;2023-02-20T03:59:01;95059.22;;;9.73;61.17
11415;BME280;5763;42.714;23.244;2023-02-20T04:01:34;95074.25;;;9.81;60.87
11415;BME280;5763;42.714;23.244;2023-02-20T04:04:03;95070.84;;;9.90;60.43
11415;BME280;5763;42.714;23.244;2023-02-20T04:06:33;95081.47;;;10.00;59.79
11415;BME280;5763;42.714;23.244;2023-02-20T04:09:05;95077.78;;;10.07;59.63
11415;BME280;5763;42.714;23.244;2023-02-20T04:11:35;95086.53;;;10.14;59.37
11415;BME280;5763;42.714;23.244;2023-02-20T04:14:05;95040.91;;;9.86;59.86
11415;BME280;5763;42.714;23.244;2023-02-20T04:16:36;95066.72;;;10.10;59.80
11415;BME280;5763;42.714;23.244;2023-02-20T04:19:05;95065.97;;;10.10;59.69
11415;BME280;5763;42.714;23.244;2023-02-20T04:21:34;95063.00;;;10.17;59.38
11415;BME280;5763;42.714;23.244;2023-02-20T04:24:08;95060.94;;;10.21;59.30
11415;BME280;5763;42.714;23.244;2023-02-20T04:26:36;95053.72;;;10.14;59.76
11415;BME280;5763;42.714;23.244;2023-02-20T04:29:03;95067.06;;;10.12;60.01
11415;BME280;5763;42.714;23.244;2023-02-20T04:31:31;95091.03;;;10.21;60.06
11415;BME280;5763;42.714;23.244;2023-02-20T04:33:58;95091.56;;;10.28;59.52
11415;BME280;5763;42.714;23.244;2023-02-20T04:36:25;95095.09;;;10.16;59.81
11415;BME280;5763;42.714;23.244;2023-02-20T04:38:52;95092.97;;;10.20;59.81
11415;BME280;5763;42.714;23.244;2023-02-20T04:41:20;95097.81;;;10.16;59.37
11415;BME280;5763;42.714;23.244;2023-02-20T04:43:47;95090.00;;;10.02;59.35
11415;BME280;5763;42.714;23.244;2023-02-20T04:46:14;95077.19;;;9.99;58.46
11415;BME280;5763;42.714;23.244;2023-02-20T04:48:41;95080.59;;;9.91;58.62
11415;BME280;5763;42.714;23.244;2023-02-20T04:51:08;95089.66;;;9.75;58.59
11415;BME280;5763;42.714;23.244;2023-02-20T04:53:35;95086.53;;;9.61;58.44
11415;BME280;5763;42.714;23.244;2023-02-20T04:56:02;95078.97;;;9.52;58.23
11415;BME280;5763;42.714;23.244;2023-02-20T04:58:30;95091.50;;;9.37;57.97
11415;BME280;5763;42.714;23.244;2023-02-20T05:00:58;95086.69;;;9.41;58.03
11415;BME280;5763;42.714;23.244;2023-02-20T05:03:25;95084.59;;;9.33;57.39
11415;BME280;5763;42.714;23.244;2023-02-20T05:05:51;95107.19;;;9.33;56.87
11415;BME280;5763;42.714;23.244;2023-02-20T05:08:18;95108.41;;;9.32;56.37
11415;BME280;5763;42.714;23.244;2023-02-20T05:10:45;95089.00;;;9.14;56.38
11415;BME280;5763;42.714;23.244;2023-02-20T05:13:12;95115.09;;;9.15;56.36
11415;BME280;5763;42.714;23.244;2023-02-20T05:15:40;95111.84;;;9.20;56.03
11415;BME280;5763;42.714;23.244;2023-02-20T05:18:07;95112.19;;;9.22;55.70
11415;BME280;5763;42.714;23.244;2023-02-20T05:20:33;95105.72;;;9.16;55.59
11415;BME280;5763;42.714;23.244;2023-02-20T05:23:18;95120.03;;;9.20;55.58
11415;BME280;5763;42.714;23.244;2023-02-20T05:25:44;95125.69;;;9.13;55.88
11415;BME280;5763;42.714;23.244;2023-02-20T05:28:11;95131.81;;;9.17;55.90
11415;BME280;5763;42.714;23.244;2023-02-20T05:30:39;95134.03;;;9.22;56.08
11415;BME280;5763;42.714;23.244;2023-02-20T05:33:06;95146.84;;;9.25;56.06
11415;BME280;5763;42.714;23.244;2023-02-20T05:35:32;95140.50;;;9.28;56.37
11415;BME280;5763;42.714;23.244;2023-02-20T05:38:00;95148.69;;;9.28;56.75
11415;BME280;5763;42.714;23.244;2023-02-20T05:40:27;95144.84;;;9.26;57.20
11415;BME280;5763;42.714;23.244;2023-02-20T05:42:53;95143.00;;;9.23;57.56
11415;BME280;5763;42.714;23.244;2023-02-20T05:45:20;95148.94;;;9.34;57.66
11415;BME280;5763;42.714;23.244;2023-02-20T05:47:48;95147.06;;;9.31;58.02
11415;BME280;5763;42.714;23.244;2023-02-20T05:50:16;95155.84;;;9.38;58.00
11415;BME280;5763;42.714;23.244;2023-02-20T05:52:42;95156.34;;;9.33;57.70
11415;BME280;5763;42.714;23.244;2023-02-20T05:55:09;95144.00;;;9.29;57.72
11415;BME280;5763;42.714;23.244;2023-02-20T05:57:36;95149.28;;;9.36;57.73
11415;BME280;5763;42.714;23.244;2023-02-20T06:00:03;95161.88;;;9.46;57.06
11415;BME280;5763;42.714;23.244;2023-02-20T06:02:30;95156.50;;;9.42;56.38
11415;BME280;5763;42.714;23.244;2023-02-20T06:04:59;95160.78;;;9.43;55.14
11415;BME280;5763;42.714;23.244;2023-02-20T06:07:26;95161.44;;;9.47;54.63
11415;BME280;5763;42.714;23.244;2023-02-20T06:09:53;95171.34;;;9.57;54.12
11415;BME280;5763;42.714;23.244;2023-02-20T06:12:19;95168.50;;;9.61;53.55
11415;BME280;5763;42.714;23.244;2023-02-20T06:14:46;95181.31;;;9.64;53.22
11415;BME280;5763;42.714;23.244;2023-02-20T06:17:13;95186.78;;;9.64;53.28
11415;BME280;5763;42.714;23.244;2023-02-20T06:19:39;95177.84;;;9.76;53.66
11415;BME280;5763;42.714;23.244;2023-02-20T06:22:08;95184.03;;;9.92;53.25
11415;BME280;5763;42.714;23.244;2023-02-20T06:24:35;95194.44;;;9.97;52.46
11415;BME280;5763;42.714;23.244;2023-02-20T06:27:02;95180.75;;;9.97;52.87
11415;BME280;5763;42.714;23.244;2023-02-20T06:29:29;95183.97;;;10.08;52.70
11415;BME280;5763;42.714;23.244;2023-02-20T06:31:57;95181.84;;;10.28;52.91
11415;BME280;5763;42.714;23.244;2023-02-20T06:34:23;95198.03;;;10.35;52.35
11415;BME280;5763;42.714;23.244;2023-02-20T06:36:51;95188.28;;;10.34;51.34
11415;BME280;5763;42.714;23.244;2023-02-20T06:39:19;95196.63;;;10.43;50.85
11415;BME280;5763;42.714;23.244;2023-02-20T06:41:46;95215.13;;;10.39;50.84
11415;BME280;5763;42.714;23.244;2023-02-20T06:44:13;95212.06;;;10.37;50.79
11415;BME280;5763;42.714;23.244;2023-02-20T06:46:39;95212.34;;;10.27;50.41
11415;BME280;5763;42.714;23.244;2023-02-20T06:49:06;95215.72;;;10.18;50.65
11415;BME280;5763;42.714;23.244;2023-02-20T06:51:33;95211.50;;;10.30;50.21
11415;BME280;5763;42.714;23.244;2023-02-20T06:54:02;95219.34;;;10.28;50.01
11415;BME280;5763;42.714;23.244;2023-02-20T06:56:32;95215.97;;;10.24;50.22
11415;BME280;5763;42.714;23.244;2023-02-20T06:59:00;95203.94;;;10.21;49.98
11415;BME280;5763;42.714;23.244;2023-02-20T07:01:28;95211.81;;;10.32;49.77
11415;BME280;5763;42.714;23.244;2023-02-20T07:03:57;95209.09;;;10.32;49.34
11415;BME280;5763;42.714;23.244;2023-02-20T07:06:24;95216.22;;;10.54;48.93
11415;BME280;5763;42.714;23.244;2023-02-20T07:08:51;95207.16;;;10.57;48.33
11415;BME280;5763;42.714;23.244;2023-02-20T07:11:21;95219.97;;;10.73;47.59
11415;BME280;5763;42.714;23.244;2023-02-20T07:13:50;95231.56;;;10.77;46.66
11415;BME280;5763;42.714;23.244;2023-02-20T07:16:17;95235.19;;;10.74;46.34
11415;BME280;5763;42.714;23.244;2023-02-20T07:18:44;95233.53;;;10.76;46.49
11415;BME280;5763;42.714;23.244;2023-02-20T07:21:10;95240.53;;;10.77;46.30
11415;BME280;5763;42.714;23.244;2023-02-20T07:23:37;95242.53;;;10.89;46.52
11415;BME280;5763;42.714;23.244;2023-02-20T07:26:04;95236.63;;;10.78;45.41
11415;BME280;5763;42.714;23.244;2023-02-20T07:28:33;95249.63;;;10.74;45.34
11415;BME280;5763;42.714;23.244;2023-02-20T07:31:01;95240.44;;;10.56;45.56
11415;BME280;5763;42.714;23.244;2023-02-20T07:33:28;95237.66;;;10.43;45.78
11415;BME280;5763;42.714;23.244;2023-02-20T07:35:55;95241.81;;;10.48;45.77
11415;BME280;5763;42.714;23.244;2023-02-20T07:38:21;95235.94;;;10.49;45.33
11415;BME280;5763;42.714;23.244;2023-02-20T07:40:48;95243.47;;;10.45;45.00
11415;BME280;5763;42.714;23.244;2023-02-20T07:43:15;95230.31;;;10.40;45.42
11415;BME280;5763;42.714;23.244;2023-02-20T07:45:42;95229.13;;;10.41;45.00
11415;BME280;5763;42.714;23.244;2023-02-20T07:48:10;95231.53;;;10.39;44.82
11415;BME280;5763;42.714;23.244;2023-02-20T07:50:36;95235.91;;;10.37;45.07
11415;BME280;5763;42.714;23.244;2023-02-20T07:53:03;95219.50;;;10.37;45.13
11415;BME280;5763;42.714;23.244;2023-02-20T07:55:30;95236.81;;;10.71;43.99
11415;BME280;5763;42.714;23.244;2023-02-20T07:57:57;95227.88;;;10.83;43.82
11415;BME280;5763;42.714;23.244;2023-02-20T08:00:25;95244.72;;;10.69;43.71
11415;BME280;5763;42.714;23.244;2023-02-20T08:02:52;95249.75;;;10.83;43.33
11415;BME280;5763;42.714;23.244;2023-02-20T08:05:21;95244.59;;;10.85;42.80
11415;BME280;5763;42.714;23.244;2023-02-20T08:07:48;95263.00;;;11.10;42.78
11415;BME280;5763;42.714;23.244;2023-02-20T08:10:18;95251.28;;;11.34;41.93
11415;BME280;5763;42.714;23.244;2023-02-20T08:12:45;95255.53;;;11.48;41.10
11415;BME280;5763;42.714;23.244;2023-02-20T08:15:11;95259.78;;;11.61;40.53
11415;BME280;5763;42.714;23.244;2023-02-20T08:17:39;95249.03;;;11.54;40.48
11415;BME280;5763;42.714;23.244;2023-02-20T08:20:07;95257.88;;;11.83;40.30
11415;BME280;5763;42.714;23.244;2023-02-20T08:22:36;95271.97;;;11.94;39.75
11415;BME280;5763;42.714;23.244;2023-02-20T08:25:03;95257.56;;;12.03;39.49
11415;BME280;5763;42.714;23.244;2023-02-20T08:27:31;95268.38;;;12.19;39.43
11415;BME280;5763;42.714;23.244;2023-02-20T08:30:03;95274.06;;;12.46;38.74
11415;BME280;5763;42.714;23.244;2023-02-20T08:32:31;95296.25;;;12.39;38.57
11415;BME280;5763;42.714;23.244;2023-02-20T08:34:58;95308.28;;;12.32;38.42
11415;BME280;5763;42.714;23.244;2023-02-20T08:37:24;95280.56;;;12.39;38.50
11415;BME280;5763;42.714;23.244;2023-02-20T08:39:52;95263.88;;;12.77;38.38
11415;BME280;5763;42.714;23.244;2023-02-20T08:42:19;95266.41;;;12.62;37.84
11415;BME280;5763;42.714;23.244;2023-02-20T08:44:46;95261.03;;;12.59;37.73
11415;BME280;5763;42.714;23.244;2023-02-20T08:47:13;95280.06;;;12.53;37.92
11415;BME280;5763;42.714;23.244;2023-02-20T08:49:39;95243.09;;;12.45;37.80
11415;BME280;5763;42.714;23.244;2023-02-20T08:52:06;95248.50;;;12.79;37.64
11415;BME280;5763;42.714;23.244;2023-02-20T08:54:33;95234.34;;;12.59;37.62
11415;BME280;5763;42.714;23.244;2023-02-20T08:57:01;95215.19;;;12.68;36.62
11415;BME280;5763;42.714;23.244;2023-02-20T08:59:30;95224.06;;;12.81;36.99
11415;BME280;5763;42.714;23.244;2023-02-20T09:01:56;95237.97;;;13.17;36.44
11415;BME280;5763;42.714;23.244;2023-02-20T09:04:23;95196.84;;;13.44;35.46
11415;BME280;5763;42.714;23.244;2023-02-20T09:06:50;95217.47;;;13.49;35.08
11415;BME280;5763;42.714;23.244;2023-02-20T09:09:17;95209.88;;;13.62;35.03
11415;BME280;5763;42.714;23.244;2023-02-20T09:11:43;95212.75;;;13.49;34.90
11415;BME280;5763;42.714;23.244;2023-02-20T09:14:12;95199.16;;;13.91;34.35
11415;BME280;5763;42.714;23.244;2023-02-20T09:16:38;95196.75;;;14.29;34.14
11415;BME280;5763;42.714;23.244;2023-02-20T09:19:06;95209.88;;;14.34;33.82
11415;BME280;5763;42.714;23.244;2023-02-20T09:21:33;95201.47;;;14.46;33.71
11415;BME280;5763;42.714;23.244;2023-02-20T09:24:01;95214.00;;;14.29;33.22
11415;BME280;5763;42.714;23.244;2023-02-20T09:26:27;95198.09;;;14.42;33.57
11415;BME280;5763;42.714;23.244;2023-02-20T09:28:54;95194.38;;;14.63;33.50
11415;BME280;5763;42.714;23.244;2023-02-20T09:31:22;95212.09;;;14.71;33.35
11415;BME280;5763;42.714;23.244;2023-02-20T09:33:49;95175.91;;;14.46;33.50
11415;BME280;5763;42.714;23.244;2023-02-20T09:36:16;95205.75;;;14.38;33.83
11415;BME280;5763;42.714;23.244;2023-02-20T09:38:42;95181.25;;;14.40;34.12
11415;BME280;5763;42.714;23.244;2023-02-20T09:41:18;95204.41;;;14.75;33.85
11415;BME280;5763;42.714;23.244;2023-02-20T09:43:53;95249.91;;;14.62;33.41
11415;BME280;5763;42.714;23.244;2023-02-20T09:46:23;95182.34;;;14.84;33.35
11415;BME280;5763;42.714;23.244;2023-02-20T09:48:59;95207.06;;;15.02;33.21
11415;BME280;5763;42.714;23.244;2023-02-20T09:51:30;95193.97;;;14.88;32.69
11415;BME280;5763;42.714;23.244;2023-02-20T09:54:03;95199.34;;;15.24;32.35
11415;BME280;5763;42.714;23.244;2023-02-20T09:56:34;95181.31;;;15.47;32.44
11415;BME280;5763;42.714;23.244;2023-02-20T09:59:06;95193.63;;;15.84;31.16
11415;BME280;5763;42.714;23.244;2023-02-20T10:01:41;95206.38;;;16.19;30.23
11415;BME280;5763;42.714;23.244;2023-02-20T10:04:12;95185.81;;;16.35;29.35
11415;BME280;5763;42.714;23.244;2023-02-20T10:06:40;95198.28;;;16.30;29.64
11415;BME280;5763;42.714;23.244;2023-02-20T10:09:10;95202.44;;;16.49;29.08
11415;BME280;5763;42.714;23.244;2023-02-20T10:11:47;95209.78;;;16.52;28.68
11415;BME280;5763;42.714;23.244;2023-02-20T10:14:31;95198.53;;;16.42;28.76
11415;BME280;5763;42.714;23.244;2023-02-20T10:17:09;95210.25;;;16.65;28.57
11415;BME280;5763;42.714;23.244;2023-02-20T10:19:43;95204.25;;;16.81;27.79
11415;BME280;5763;42.714;23.244;2023-02-20T10:22:19;95196.34;;;16.45;27.99
11415;BME280;5763;42.714;23.244;2023-02-20T10:25:06;95197.88;;;16.75;28.01
11415;BME280;5763;42.714;23.244;2023-02-20T10:27:42;95196.59;;;17.05;28.13
11415;BME280;5763;42.714;23.244;2023-02-20T10:30:19;95175.06;;;17.44;27.77
11415;BME280;5763;42.714;23.244;2023-02-20T10:32:55;95182.19;;;17.16;27.13
11415;BME280;5763;42.714;23.244;2023-02-20T10:35:29;95181.94;;;17.34;27.77
11415;BME280;5763;42.714;23.244;2023-02-20T10:37:58;95174.59;;;16.96;27.60
11415;BME280;5763;42.714;23.244;2023-02-20T10:40:32;95163.63;;;17.36;27.44
11415;BME280;5763;42.714;23.244;2023-02-20T10:43:03;95173.13;;;17.50;27.26
11415;BME280;5763;42.714;23.244;2023-02-20T10:45:43;95161.72;;;17.42;27.04
11415;BME280;5763;42.714;23.244;2023-02-20T10:48:12;95149.72;;;17.31;26.71
11415;BME280;5763;42.714;23.244;2023-02-20T10:50:46;95141.47;;;17.36;26.90
11415;BME280;5763;42.714;23.244;2023-02-20T10:53:23;95155.63;;;17.98;26.34
11415;BME280;5763;42.714;23.244;2023-02-20T10:55:57;95142.50;;;17.73;26.26
11415;BME280;5763;42.714;23.244;2023-02-20T10:58:31;95131.97;;;17.98;26.48
11415;BME280;5763;42.714;23.244;2023-02-20T11:01:01;95130.34;;;18.11;26.64
11415;BME280;5763;42.714;23.244;2023-02-20T11:03:36;95139.38;;;18.32;25.90
11415;BME280;5763;42.714;23.244;2023-02-20T11:06:05;95149.91;;;18.27;26.31
11415;BME280;5763;42.714;23.244;2023-02-20T11:08:34;95152.03;;;18.13;25.72
11415;BME280;5763;42.714;23.244;2023-02-20T11:11:19;95156.44;;;18.24;26.35
11415;BME280;5763;42.714;23.244;2023-02-20T11:13:47;95141.50;;;18.42;25.89
11415;BME280;5763;42.714;23.244;2023-02-20T11:16:21;95133.69;;;18.66;25.66
11415;BME280;5763;42.714;23.244;2023-02-20T11:18:59;95134.56;;;18.83;25.55
11415;BME280;5763;42.714;23.244;2023-02-20T11:21:38;95157.44;;;19.04;25.17
11415;BME280;5763;42.714;23.244;2023-02-20T11:24:29;95152.69;;;18.79;25.45
11415;BME280;5763;42.714;23.244;2023-02-20T11:27:02;95153.91;;;18.72;24.94
11415;BME280;5763;42.714;23.244;2023-02-20T11:29:37;95143.91;;;18.55;25.35
11415;BME280;5763;42.714;23.244;2023-02-20T11:32:27;95163.41;;;18.97;25.01
11415;BME280;5763;42.714;23.244;2023-02-20T11:35:30;95144.38;;;18.79;24.86
11415;BME280;5763;42.714;23.244;2023-02-20T11:38:32;95165.03;;;18.27;25.58
11415;BME280;5763;42.714;23.244;2023-02-20T11:41:11;95176.28;;;17.98;25.73
11415;BME280;5763;42.714;23.244;2023-02-20T11:43:44;95164.63;;;18.13;25.66
11415;BME280;5763;42.714;23.244;2023-02-20T11:46:14;95154.91;;;18.23;25.24
11415;BME280;5763;42.714;23.244;2023-02-20T11:49:00;95159.34;;;18.36;25.53
11415;BME280;5763;42.714;23.244;2023-02-20T11:51:36;95134.94;;;18.40;25.41
11415;BME280;5763;42.714;23.244;2023-02-20T11:54:09;95168.34;;;18.82;24.74
11415;BME280;5763;42.714;23.244;2023-02-20T11:56:56;95153.94;;;18.27;25.33
11415;BME280;5763;42.714;23.244;2023-02-20T11:59:30;95156.16;;;18.23;25.44
11415;BME280;5763;42.714;23.244;2023-02-20T12:02:27;95154.88;;;17.98;26.05
11415;BME280;5763;42.714;23.244;2023-02-20T12:05:04;95136.69;;;17.72;26.25
11415;BME280;5763;42.714;23.244;2023-02-20T12:07:35;95138.06;;;17.82;25.62
11415;BME280;5763;42.714;23.244;2023-02-20T12:10:20;95128.38;;;17.92;25.60
11415;BME280;5763;42.714;23.244;2023-02-20T12:12:48;95137.13;;;17.85;25.89
11415;BME280;5763;42.714;23.244;2023-02-20T12:15:16;95135.50;;;18.23;25.52
11415;BME280;5763;42.714;23.244;2023-02-20T12:17:57;95140.09;;;18.27;25.34
11415;BME280;5763;42.714;23.244;2023-02-20T12:20:30;95144.34;;;18.02;25.31
11415;BME280;5763;42.714;23.244;2023-02-20T12:23:04;95145.88;;;18.28;25.24
11415;BME280;5763;42.714;23.244;2023-02-20T12:25:51;95134.22;;;18.70;24.68
11415;BME280;5763;42.714;23.244;2023-02-20T12:28:28;95147.78;;;18.94;24.81
11415;BME280;5763;42.714;23.244;2023-02-20T12:31:12;95151.84;;;18.98;24.45
11415;BME280;5763;42.714;23.244;2023-02-20T12:33:50;95148.53;;;18.94;24.22
11415;BME280;5763;42.714;23.244;2023-02-20T12:36:26;95158.06;;;18.57;24.55
11415;BME280;5763;42.714;23.244;2023-02-20T12:38:58;95186.94;;;19.07;24.38
11415;BME280;5763;42.714;23.244;2023-02-20T12:41:42;95147.78;;;18.94;24.73
11415;BME280;5763;42.714;23.244;2023-02-20T12:44:26;95131.16;;;18.68;24.55
11415;BME280;5763;42.714;23.244;2023-02-20T12:47:02;95136.84;;;19.16;24.04
11415;BME280;5763;42.714;23.244;2023-02-20T12:49:52;95120.59;;;18.98;24.34
11415;BME280;5763;42.714;23.244;2023-02-20T12:52:36;95145.50;;;19.23;23.84
11415;BME280;5763;42.714;23.244;2023-02-20T12:55:18;95120.88;;;19.05;23.89
11415;BME280;5763;42.714;23.244;2023-02-20T12:57:57;95145.03;;;19.30;24.08
11415;BME280;5763;42.714;23.244;2023-02-20T13:00:31;95132.38;;;19.71;23.57
11415;BME280;5763;42.714;23.244;2023-02-20T13:03:05;95127.50;;;20.08;23.16
11415;BME280;5763;42.714;23.244;2023-02-20T13:05:36;95150.78;;;19.69;23.32
11415;BME280;5763;42.714;23.244;2023-02-20T13:08:08;95157.59;;;19.68;23.44
11415;BME280;5763;42.714;23.244;2023-02-20T13:10:46;95153.75;;;19.18;23.91
11415;BME280;5763;42.714;23.244;2023-02-20T13:13:16;95140.25;;;18.69;24.41
11415;BME280;5763;42.714;23.244;2023-02-20T13:15:49;95153.50;;;18.08;25.61
11415;BME280;5763;42.714;23.244;2023-02-20T13:18:30;95151.63;;;17.25;26.20
11415;BME280;5763;42.714;23.244;2023-02-20T13:21:02;95157.09;;;16.56;27.21
11415;BME280;5763;42.714;23.244;2023-02-20T13:23:32;95142.22;;;16.68;27.33